Time;durP1;ratioP1;P1;durP2;ratioP2;P2;SDS_P1;SDS_P2;PMS_P1;PMS_P2;Temp;Humidity;BMP_temperature;BMP_pressure;BME280_temperature;BME280_humidity;BME280_pressure;Samples;Min_cycle;Max_cycle;Signal;HPM_P1;HPM_P2
2022/05/29 00:02:29;;;;;;;28.23;15.95;;;27.70;99.90;;;;;;1809904;78;21147;-79
2022/05/29 00:05:00;;;;;;;27.52;14.87;;;27.70;99.90;;;;;;1785152;78;21218;-79
2022/05/29 00:07:31;;;;;;;29.07;15.55;;;27.70;99.90;;;;;;1791598;78;21131;-80
2022/05/29 00:10:05;;;;;;;31.07;15.13;;;27.70;99.90;;;;;;1810310;78;21572;-79
2022/05/29 00:12:36;;;;;;;32.15;16.23;;;27.90;99.90;;;;;;1808394;78;21137;-80
2022/05/29 00:15:09;;;;;;;28.60;16.20;;;27.80;99.90;;;;;;1773667;80;21523;-80
2022/05/29 00:17:40;;;;;;;31.93;16.27;;;27.80;99.90;;;;;;1787003;79;21169;-80
2022/05/29 00:20:12;;;;;;;26.45;15.53;;;27.80;99.90;;;;;;1803502;78;21500;-79
2022/05/29 00:22:43;;;;;;;29.30;16.60;;;27.90;99.90;;;;;;1780972;78;21190;-79
2022/05/29 00:25:14;;;;;;;27.17;15.70;;;27.80;99.90;;;;;;1833687;77;21144;-79
2022/05/29 00:27:46;;;;;;;22.90;16.02;;;27.80;99.90;;;;;;1817565;77;22123;-78
2022/05/29 00:30:18;;;;;;;28.23;15.18;;;28.00;99.90;;;;;;1820647;77;21248;-77
2022/05/29 00:32:51;;;;;;;28.32;15.90;;;27.90;99.90;;;;;;1817909;77;21248;-77
2022/05/29 00:35:22;;;;;;;28.73;16.80;;;28.00;99.90;;;;;;1798439;77;21694;-77
2022/05/29 00:37:53;;;;;;;28.92;16.32;;;27.90;99.90;;;;;;1795434;79;21239;-77
2022/05/29 00:40:26;;;;;;;27.37;16.20;;;28.00;99.90;;;;;;1798934;79;21159;-76
2022/05/29 00:42:57;;;;;;;28.35;15.20;;;28.10;99.90;;;;;;1813794;79;21144;-77
2022/05/29 00:45:31;;;;;;;26.95;15.63;;;28.20;99.90;;;;;;1794656;78;21592;-78
2022/05/29 00:48:04;;;;;;;25.48;15.95;;;28.10;99.90;;;;;;1828539;78;21802;-80
2022/05/29 00:50:35;;;;;;;27.90;14.80;;;28.20;99.90;;;;;;1778882;79;21239;-79
2022/05/29 00:53:09;;;;;;;26.27;14.80;;;28.20;99.90;;;;;;1809886;79;21654;-80
2022/05/29 00:55:40;;;;;;;27.90;16.12;;;28.40;99.90;;;;;;1776635;78;21696;-78
2022/05/29 00:58:12;;;;;;;27.13;17.07;;;28.30;99.90;;;;;;1796173;77;21205;-78
2022/05/29 01:00:43;;;;;;;31.33;16.27;;;28.40;99.90;;;;;;1818087;78;21143;-79
2022/05/29 01:03:14;;;;;;;33.55;15.45;;;28.60;99.90;;;;;;1782652;79;21104;-79
2022/05/29 01:05:45;;;;;;;31.52;15.83;;;28.40;99.90;;;;;;1797610;78;21202;-79
2022/05/29 01:08:23;;;;;;;25.40;15.25;;;28.60;99.90;;;;;;1808424;77;21160;-79
2022/05/29 01:10:53;;;;;;;25.57;16.27;;;28.50;99.90;;;;;;1819119;77;21256;-79
2022/05/29 01:13:31;;;;;;;28.40;16.12;;;28.60;99.90;;;;;;1767010;80;21210;-79
2022/05/29 01:16:04;;;;;;;30.68;16.27;;;28.80;99.90;;;;;;1800774;78;21583;-80
2022/05/29 01:18:40;;;;;;;29.15;15.53;;;28.90;99.90;;;;;;1802354;78;21173;-80
2022/05/29 01:21:16;;;;;;;25.45;15.00;;;28.70;99.90;;;;;;1824655;76;21097;-79
2022/05/29 01:23:59;;;;;;;26.73;15.08;;;29.00;99.90;;;;;;1815478;76;21172;-79
2022/05/29 01:26:33;;;;;;;23.52;14.98;;;28.90;99.90;;;;;;1806824;78;21195;-78
2022/05/29 01:29:07;;;;;;;25.48;14.60;;;29.10;99.90;;;;;;1821387;77;21198;-78
2022/05/29 01:31:45;;;;;;;28.67;15.58;;;29.10;99.90;;;;;;1802546;77;21109;-79
2022/05/29 01:34:19;;;;;;;26.68;15.63;;;29.50;99.90;;;;;;1806135;77;21144;-79
2022/05/29 01:37:10;;;;;;;36.20;15.78;;;29.40;99.40;;;;;;1778530;78;21242;-79
2022/05/29 01:39:47;;;;;;;29.65;16.15;;;29.40;99.90;;;;;;1702382;83;21183;-79
2022/05/29 01:42:20;;;;;;;25.90;15.25;;;29.70;98.90;;;;;;1716257;83;21283;-80
2022/05/29 01:44:57;;;;;;;24.70;15.18;;;29.60;99.10;;;;;;1718029;82;21193;-80
2022/05/29 01:47:33;;;;;;;28.83;16.23;;;29.60;98.80;;;;;;1757388;80;21184;-79
2022/05/29 01:50:06;;;;;;;31.52;17.42;;;29.60;99.00;;;;;;1786495;78;21165;-78
2022/05/29 01:52:42;;;;;;;30.43;15.58;;;29.70;98.80;;;;;;1783108;79;21099;-77
2022/05/29 01:55:15;;;;;;;27.82;15.72;;;29.60;98.90;;;;;;1792664;79;22432;-78
2022/05/29 01:57:48;;;;;;;26.25;15.95;;;29.60;98.90;;;;;;1781162;79;21194;-78
2022/05/29 02:00:22;;;;;;;32.78;15.03;;;29.60;98.90;;;;;;1784724;78;21147;-77
2022/05/29 02:02:55;;;;;;;30.43;14.93;;;29.70;98.60;;;;;;1778526;78;21202;-77
2022/05/29 02:05:29;;;;;;;30.30;15.30;;;30.00;98.60;;;;;;1787434;78;21653;-77
2022/05/29 02:08:02;;;;;;;35.65;14.78;;;30.40;98.20;;;;;;1770611;79;21174;-78
2022/05/29 02:10:36;;;;;;;31.68;15.58;;;30.30;98.10;;;;;;1780529;79;21190;-79
2022/05/29 02:13:10;;;;;;;27.87;16.02;;;30.20;98.10;;;;;;1775631;79;21713;-78
2022/05/29 02:15:43;;;;;;;29.60;15.05;;;30.10;97.70;;;;;;1781165;80;21704;-78
2022/05/29 02:18:16;;;;;;;29.85;15.25;;;30.10;98.10;;;;;;1769667;80;21194;-79
2022/05/29 02:20:49;;;;;;;34.08;14.68;;;29.90;98.20;;;;;;1783066;79;21134;-77
2022/05/29 02:23:22;;;;;;;32.05;15.65;;;29.90;98.30;;;;;;1783549;77;21119;-80
2022/05/29 02:25:55;;;;;;;32.45;15.10;;;29.90;97.90;;;;;;1780467;78;21176;-78
2022/05/29 02:28:28;;;;;;;31.10;16.60;;;29.90;98.40;;;;;;1779346;80;21287;-76
2022/05/29 02:31:02;;;;;;;29.30;15.80;;;29.70;98.70;;;;;;1779084;80;21602;-79
2022/05/29 02:33:36;;;;;;;28.80;16.35;;;29.80;98.70;;;;;;1774515;80;21572;-79
2022/05/29 02:38:44;;;;;;;25.25;15.08;;;29.80;98.60;;;;;;1763621;80;21193;-78
2022/05/29 02:41:17;;;;;;;25.25;15.03;;;29.90;98.70;;;;;;1789670;79;21617;-78
2022/05/29 02:43:51;;;;;;;25.08;14.60;;;29.90;98.30;;;;;;1782260;79;21973;-78
2022/05/29 02:46:24;;;;;;;26.02;15.18;;;29.70;98.40;;;;;;1735306;82;21650;-79
2022/05/29 02:48:58;;;;;;;30.27;14.93;;;29.70;98.20;;;;;;1753815;80;22396;-78
2022/05/29 02:51:32;;;;;;;;;;;29.80;98.40;;;;;;1792869;79;21131;-78
2022/05/29 02:54:03;;;;;;;28.12;15.55;;;30.00;98.60;;;;;;1752242;81;20127;-78
2022/05/29 02:56:34;;;;;;;29.37;14.68;;;30.20;98.10;;;;;;1773932;80;21182;-78
2022/05/29 02:59:05;;;;;;;31.90;15.88;;;30.30;98.10;;;;;;1745824;82;21275;-78
2022/05/29 03:01:38;;;;;;;33.67;14.80;;;30.70;97.70;;;;;;1780255;79;21155;-79
2022/05/29 03:04:12;;;;;;;26.80;14.87;;;30.70;97.00;;;;;;1778821;79;21142;-79
2022/05/29 03:06:45;;;;;;;24.82;14.05;;;30.60;97.00;;;;;;1785012;79;21198;-79
2022/05/29 03:09:19;;;;;;;27.32;15.35;;;30.70;96.30;;;;;;1781880;80;21683;-79
2022/05/29 03:11:52;;;;;;;28.40;14.10;;;30.80;96.50;;;;;;1757158;80;21125;-79
2022/05/29 03:14:27;;;;;;;30.82;14.60;;;31.20;96.70;;;;;;1759000;80;21234;-78
2022/05/29 03:17:00;;;;;;;28.07;14.35;;;31.10;96.00;;;;;;1780542;79;21135;-77
2022/05/29 03:19:34;;;;;;;27.87;14.25;;;31.10;95.40;;;;;;1777828;79;21680;-78
2022/05/29 03:22:08;;;;;;;26.42;15.05;;;31.50;95.50;;;;;;1783663;79;21606;-79
2022/05/29 03:24:41;;;;;;;29.72;14.98;;;31.40;95.50;;;;;;1779274;79;21104;-80
2022/05/29 03:27:14;;;;;;;27.82;14.93;;;31.30;95.10;;;;;;1777212;79;21174;-79
2022/05/29 03:29:47;;;;;;;24.00;15.63;;;31.30;94.90;;;;;;1772689;79;21190;-79
2022/05/29 03:32:20;;;;;;;32.38;14.68;;;31.40;95.20;;;;;;1788620;79;21218;-79
2022/05/29 03:34:52;;;;;;;27.60;14.33;;;31.50;95.20;;;;;;1779249;79;21163;-79
2022/05/29 03:37:23;;;;;;;27.10;14.45;;;31.60;95.20;;;;;;1783916;80;21155;-77
2022/05/29 03:39:54;;;;;;;29.80;14.03;;;31.60;94.00;;;;;;1785844;79;21629;-78
2022/05/29 03:42:26;;;;;;;29.70;13.55;;;31.70;94.10;;;;;;1776929;80;21838;-78
2022/05/29 03:44:57;;;;;;;24.50;14.00;;;31.80;94.20;;;;;;1781131;79;21320;-80
2022/05/29 03:47:28;;;;;;;28.20;13.68;;;31.90;93.90;;;;;;1781410;79;21245;-77
2022/05/29 03:49:59;;;;;;;22.67;13.70;;;31.90;94.00;;;;;;1775490;79;21673;-78
2022/05/29 03:52:31;;;;;;;27.20;13.10;;;31.70;93.40;;;;;;1775983;80;21187;-77
2022/05/29 03:55:03;;;;;;;26.75;14.35;;;31.70;93.30;;;;;;1779693;80;21107;-78
2022/05/29 03:57:34;;;;;;;23.32;14.28;;;31.60;93.80;;;;;;1768372;80;21273;-77
2022/05/29 04:00:07;;;;;;;31.02;14.03;;;31.80;94.00;;;;;;1773815;80;21158;-79
2022/05/29 04:02:42;;;;;;;28.52;13.20;;;31.60;94.10;;;;;;1775618;79;21108;-80
2022/05/29 04:05:13;;;;;;;25.08;13.30;;;31.80;94.50;;;;;;1749843;81;21173;-79
2022/05/29 04:12:51;;;;;;;31.48;14.38;;;31.90;94.10;;;;;;1782592;79;21191;-78
2022/05/29 04:15:22;;;;;;;32.40;12.63;;;31.50;93.60;;;;;;1782041;79;21768;-79
2022/05/29 04:17:53;;;;;;;24.23;12.80;;;31.80;93.60;;;;;;1774822;79;21704;-79
2022/05/29 04:20:24;;;;;;;22.15;13.22;;;32.00;93.20;;;;;;1794641;79;21153;-80
2022/05/29 04:22:55;;;;;;;21.37;12.98;;;32.00;93.70;;;;;;1742878;82;21185;-79
2022/05/29 04:25:26;;;;;;;25.57;13.35;;;32.10;93.80;;;;;;1790928;80;21239;-80
2022/05/29 04:27:57;;;;;;;24.77;12.33;;;32.30;93.90;;;;;;1785543;79;21131;-79
2022/05/29 04:30:28;;;;;;;25.92;13.15;;;32.20;93.60;;;;;;1784318;79;21285;-79
2022/05/29 04:33:01;;;;;;;26.48;12.82;;;32.30;93.00;;;;;;1789282;79;21189;-79
2022/05/29 04:35:35;;;;;;;20.75;12.30;;;32.60;92.50;;;;;;1774112;79;21228;-79
2022/05/29 04:38:07;;;;;;;24.60;13.30;;;32.40;91.80;;;;;;1822803;78;21636;-79
2022/05/29 04:40:39;;;;;;;22.75;13.05;;;32.50;91.70;;;;;;1812831;79;21767;-79
2022/05/29 04:43:12;;;;;;;24.00;12.78;;;32.60;91.80;;;;;;1818942;79;21251;-79
2022/05/29 04:45:46;;;;;;;25.77;12.85;;;32.60;92.20;;;;;;1817553;79;21539;-78
2022/05/29 04:48:17;;;;;;;20.75;13.32;;;32.70;92.00;;;;;;1817512;79;21252;-78
2022/05/29 04:50:49;;;;;;;25.60;12.10;;;32.80;91.70;;;;;;1818790;78;21110;-78
2022/05/29 04:53:20;;;;;;;29.70;12.75;;;32.90;91.80;;;;;;1817811;79;21190;-79
2022/05/29 04:55:54;;;;;;;20.45;11.57;;;33.00;91.20;;;;;;1817725;79;21847;-79
2022/05/29 04:58:27;;;;;;;22.50;12.13;;;33.00;90.80;;;;;;1816877;79;21095;-79
2022/05/29 05:00:59;;;;;;;20.43;11.00;;;33.10;90.50;;;;;;1817009;79;21957;-79
2022/05/29 05:03:31;;;;;;;19.30;12.18;;;33.00;90.40;;;;;;1817656;79;21511;-79
2022/05/29 05:06:02;;;;;;;21.60;12.20;;;33.20;90.60;;;;;;1817816;79;21194;-78
2022/05/29 05:08:33;;;;;;;23.52;10.65;;;32.90;90.10;;;;;;1804350;79;21677;-79
2022/05/29 05:11:05;;;;;;;19.42;11.45;;;33.00;90.50;;;;;;1789145;79;21159;-79
2022/05/29 05:13:37;;;;;;;17.98;10.50;;;33.20;89.30;;;;;;1792116;79;22242;-80
2022/05/29 05:16:08;;;;;;;19.23;11.10;;;33.30;89.50;;;;;;1743695;81;21204;-79
2022/05/29 05:18:39;;;;;;;23.40;10.95;;;33.20;89.30;;;;;;1751042;81;21182;-80
2022/05/29 05:21:11;;;;;;;27.17;12.23;;;33.00;90.40;;;;;;1781248;79;21136;-79
2022/05/29 05:23:42;;;;;;;20.48;10.15;;;33.00;89.80;;;;;;1791385;79;21096;-78
2022/05/29 05:26:15;;;;;;;21.50;11.22;;;33.00;90.30;;;;;;1792880;79;21174;-77
2022/05/29 05:28:46;;;;;;;20.72;10.28;;;32.90;90.10;;;;;;1791079;79;21186;-78
2022/05/29 05:31:18;;;;;;;19.60;10.43;;;33.00;90.20;;;;;;1779666;80;22147;-79
2022/05/29 05:33:50;;;;;;;16.93;10.05;;;32.90;90.20;;;;;;1790390;79;21249;-77
2022/05/29 05:36:27;;;;;;;21.70;10.13;;;32.90;89.60;;;;;;1795090;79;21131;-79
2022/05/29 05:38:58;;;;;;;23.77;10.45;;;33.20;90.00;;;;;;1794163;79;21198;-79
2022/05/29 05:41:29;;;;;;;20.20;11.18;;;33.10;89.70;;;;;;1786269;79;21171;-79
2022/05/29 05:44:00;;;;;;;23.50;11.15;;;33.30;90.00;;;;;;1785564;80;21551;-79
2022/05/29 05:46:31;;;;;;;22.67;10.55;;;33.40;89.50;;;;;;1783243;80;21198;-78
2022/05/29 05:49:02;;;;;;;22.07;10.85;;;33.80;88.50;;;;;;1786052;79;21677;-78
2022/05/29 05:51:33;;;;;;;20.40;10.98;;;33.70;87.60;;;;;;1783385;80;21598;-78
2022/05/29 05:54:04;;;;;;;21.50;10.70;;;33.80;87.70;;;;;;1785949;80;22004;-77
2022/05/29 05:56:35;;;;;;;22.55;10.82;;;33.90;86.90;;;;;;1785829;79;21210;-79
2022/05/29 05:59:07;;;;;;;22.95;11.00;;;33.70;83.30;;;;;;1789575;79;21637;-77
2022/05/29 06:01:38;;;;;;;24.85;10.68;;;33.80;84.30;;;;;;1778394;80;21166;-77
2022/05/29 06:04:09;;;;;;;22.30;10.18;;;33.90;85.00;;;;;;1782988;80;21234;-79
2022/05/29 06:06:40;;;;;;;21.12;10.40;;;33.80;83.90;;;;;;1787690;80;21198;-78
2022/05/29 06:09:13;;;;;;;21.68;10.78;;;33.70;84.00;;;;;;1786342;80;21230;-79
2022/05/29 06:11:44;;;;;;;19.98;10.75;;;33.60;85.50;;;;;;1778393;80;21559;-79
2022/05/29 06:14:15;;;;;;;21.90;11.15;;;33.80;85.80;;;;;;1792982;79;21178;-77
2022/05/29 06:16:46;;;;;;;21.90;10.32;;;33.60;86.20;;;;;;1793657;79;21131;-79
2022/05/29 06:19:19;;;;;;;24.90;11.10;;;33.20;86.40;;;;;;1796065;78;21174;-78
2022/05/29 06:21:49;;;;;;;23.62;10.70;;;33.20;86.60;;;;;;1786338;79;21186;-79
2022/05/29 06:24:20;;;;;;;21.62;12.15;;;33.00;87.20;;;;;;1819351;78;21217;-79
2022/05/29 06:26:51;;;;;;;24.92;11.33;;;33.00;87.00;;;;;;1817937;78;21095;-78
2022/05/29 06:29:22;;;;;;;26.00;12.13;;;33.10;87.20;;;;;;1816883;78;21202;-79
2022/05/29 06:31:55;;;;;;;26.82;11.43;;;32.80;89.30;;;;;;1809970;78;21154;-79
2022/05/29 06:34:25;;;;;;;22.45;10.85;;;33.10;88.80;;;;;;1809005;79;21170;-78
2022/05/29 06:37:04;;;;;;;25.17;12.30;;;32.90;88.80;;;;;;1805259;79;21702;-77
2022/05/29 06:39:37;;;;;;;23.10;11.75;;;33.20;88.90;;;;;;1807982;79;21661;-78
2022/05/29 06:42:08;;;;;;;22.98;11.65;;;33.30;88.10;;;;;;1782081;79;21689;-78
2022/05/29 06:44:45;;;;;;;25.35;12.03;;;32.90;88.00;;;;;;1775338;79;21119;-78
2022/05/29 06:47:16;;;;;;;22.17;11.68;;;33.00;90.00;;;;;;1791190;79;21072;-78
2022/05/29 06:49:49;;;;;;;29.27;13.10;;;32.70;90.40;;;;;;1776996;79;21224;-79
2022/05/29 06:52:21;;;;;;;27.73;13.55;;;32.70;92.00;;;;;;1778225;79;21135;-79
2022/05/29 06:54:52;;;;;;;26.40;14.85;;;32.50;92.70;;;;;;1798771;79;21198;-78
2022/05/29 06:58:06;;;;;;;25.72;13.62;;;32.40;93.50;;;;;;1790799;79;21111;-79
2022/05/29 07:07:34;;;;;;;23.42;11.48;;;31.90;93.50;;;;;;1769484;79;21678;-77
2022/05/29 07:10:06;;;;;;;23.22;11.75;;;32.00;93.00;;;;;;1784350;79;21233;-77
2022/05/29 07:12:37;;;;;;;26.23;11.40;;;32.00;92.40;;;;;;1778348;79;21273;-79
2022/05/29 07:15:10;;;;;;;24.85;12.18;;;32.00;92.00;;;;;;1776891;79;21198;-78
2022/05/29 07:17:40;;;;;;;29.90;12.70;;;32.10;92.00;;;;;;1760175;81;21198;-78
2022/05/29 07:20:15;;;;;;;21.50;12.20;;;32.10;92.40;;;;;;1766750;80;21163;-78
2022/05/29 07:22:46;;;;;;;29.57;11.93;;;32.10;93.00;;;;;;1697239;84;21136;-78
2022/05/29 07:25:17;;;;;;;25.72;12.40;;;32.10;93.60;;;;;;1716706;82;21171;-77
2022/05/29 07:27:48;;;;;;;28.23;11.70;;;32.00;92.80;;;;;;1690907;83;21220;-78
2022/05/29 07:30:19;;;;;;;23.20;12.05;;;31.90;91.60;;;;;;1711971;82;21698;-78
2022/05/29 07:32:50;;;;;;;26.33;13.70;;;31.90;92.60;;;;;;1718329;82;21586;-79
2022/05/29 07:35:21;;;;;;;26.30;13.43;;;31.50;94.00;;;;;;1755285;80;21194;-79
2022/05/29 07:37:52;;;;;;;24.65;13.32;;;31.40;93.80;;;;;;1710130;82;21079;-79
2022/05/29 07:40:24;;;;;;;23.10;13.48;;;31.20;94.30;;;;;;1755925;80;21541;-79
2022/05/29 07:45:29;;;;;;;23.30;13.50;;;31.10;94.90;;;;;;1783531;80;21111;-76
2022/05/29 07:48:01;;;;;;;21.85;13.55;;;31.20;94.90;;;;;;1783194;80;21107;-79
2022/05/29 07:50:32;;;;;;;26.82;13.55;;;30.80;95.00;;;;;;1776548;79;21546;-79
2022/05/29 07:53:08;;;;;;;21.12;12.85;;;30.90;95.50;;;;;;1767762;80;21639;-78
2022/05/29 07:55:41;;;;;;;21.05;12.53;;;30.80;95.10;;;;;;1777218;80;21157;-78
2022/05/29 07:58:14;;;;;;;23.83;14.20;;;30.70;95.30;;;;;;1774721;80;21119;-77
2022/05/29 08:00:45;;;;;;;23.80;12.80;;;30.90;95.60;;;;;;1757197;81;21212;-76
2022/05/29 08:03:23;;;;;;;21.90;13.05;;;30.80;95.60;;;;;;1787573;79;21152;-78
2022/05/29 08:05:57;;;;;;;25.77;13.15;;;30.90;96.20;;;;;;1789264;79;21264;-78
2022/05/29 08:08:32;;;;;;;25.30;14.15;;;30.90;95.80;;;;;;1780917;80;21162;-78
2022/05/29 08:11:03;;;;;;;25.62;12.18;;;30.90;96.20;;;;;;1776763;80;21169;-76
2022/05/29 08:13:36;;;;;;;20.05;12.35;;;30.80;96.50;;;;;;1776071;80;21143;-78
2022/05/29 08:16:17;;;;;;;23.40;13.40;;;30.70;96.40;;;;;;1776858;80;21153;-77
2022/05/29 08:18:45;;;;;;;25.05;12.73;;;30.70;96.60;;;;;;1777898;80;21563;-78
2022/05/29 08:21:16;;;;;;;18.20;11.63;;;30.60;97.20;;;;;;1776168;80;21150;-79
2022/05/29 08:31:31;;;;;;;24.90;11.65;;;30.40;97.80;;;;;;1781102;80;21163;-79
2022/05/29 08:34:03;;;;;;;20.82;11.12;;;30.50;98.50;;;;;;1782688;80;21267;-79
2022/05/29 08:36:37;;;;;;;17.37;10.43;;;30.20;98.10;;;;;;1775179;80;21181;-78
2022/05/29 08:39:07;;;;;;;25.48;10.80;;;30.30;97.70;;;;;;1753440;81;21669;-78
2022/05/29 08:41:41;;;;;;;17.95;10.80;;;30.00;97.90;;;;;;1779732;80;21173;-78
2022/05/29 08:44:14;;;;;;;17.30;10.60;;;29.90;98.20;;;;;;1781579;80;21233;-77
2022/05/29 08:46:49;;;;;;;19.62;9.98;;;30.10;98.20;;;;;;1784002;80;21170;-78
2022/05/29 08:49:22;;;;;;;16.32;9.70;;;29.90;98.10;;;;;;1782279;80;21099;-79
2022/05/29 08:51:56;;;;;;;15.48;9.98;;;29.90;97.90;;;;;;1786623;80;21729;-78
2022/05/29 08:54:31;;;;;;;16.12;9.90;;;30.00;97.90;;;;;;1769484;80;21108;-79
2022/05/29 08:57:07;;;;;;;15.43;8.00;;;29.80;97.50;;;;;;1783226;80;21146;-79
2022/05/29 08:59:40;;;;;;;15.50;6.75;;;29.70;96.80;;;;;;1779059;80;21239;-78
2022/05/29 09:02:13;;;;;;;10.08;5.70;;;29.70;96.50;;;;;;1783537;79;21127;-79
2022/05/29 09:04:50;;;;;;;8.98;4.70;;;29.70;96.70;;;;;;1782166;80;21162;-79
2022/05/29 09:07:25;;;;;;;11.30;4.70;;;29.60;96.90;;;;;;1782805;80;21268;-79
2022/05/29 09:09:58;;;;;;;12.73;5.10;;;29.50;97.40;;;;;;1785910;80;21167;-79
2022/05/29 09:12:31;;;;;;;9.08;4.50;;;29.50;97.80;;;;;;1783179;80;21150;-78
2022/05/29 09:15:06;;;;;;;12.45;4.20;;;29.50;98.50;;;;;;1780371;80;21103;-79
2022/05/29 09:17:39;;;;;;;9.03;5.25;;;29.40;98.80;;;;;;1781557;80;21190;-79
2022/05/29 09:20:13;;;;;;;12.73;4.85;;;29.20;99.30;;;;;;1778567;80;21150;-80
2022/05/29 09:22:44;;;;;;;12.88;6.03;;;29.10;99.80;;;;;;1789760;80;21138;-79
2022/05/29 09:25:20;;;;;;;11.57;5.85;;;28.90;99.90;;;;;;1787888;80;21163;-79
2022/05/29 09:27:56;;;;;;;13.03;7.03;;;28.80;99.90;;;;;;1781586;79;21483;-79
2022/05/29 09:30:27;;;;;;;14.10;8.30;;;28.70;99.90;;;;;;1782315;80;21158;-79
2022/05/29 09:33:02;;;;;;;13.60;7.80;;;28.50;99.90;;;;;;1789658;80;21282;-79
2022/05/29 09:35:36;;;;;;;15.32;7.78;;;28.40;99.90;;;;;;1790461;78;21233;-81
2022/05/29 09:38:09;;;;;;;14.40;8.70;;;28.30;99.90;;;;;;1778223;80;21946;-77
2022/05/29 09:40:42;;;;;;;15.25;8.78;;;28.30;99.90;;;;;;1787869;80;22068;-77
2022/05/29 09:43:16;;;;;;;15.03;7.42;;;28.40;99.90;;;;;;1782559;78;21190;-79
2022/05/29 09:45:47;;;;;;;16.52;8.65;;;28.50;99.90;;;;;;1788627;80;21555;-77
2022/05/29 09:51:00;;;;;;;13.55;8.93;;;28.30;99.90;;;;;;1764519;80;21095;-85
2022/05/29 09:53:34;;;;;;;17.17;9.15;;;28.40;99.90;;;;;;1789104;80;21103;-83
2022/05/29 09:56:08;;;;;;;18.35;11.08;;;28.40;99.90;;;;;;1792197;80;21099;-86
2022/05/29 09:58:41;;;;;;;16.48;10.03;;;28.50;99.90;;;;;;1789302;80;21230;-86
2022/05/29 10:01:12;;;;;;;16.87;9.73;;;28.60;99.90;;;;;;1793372;79;21134;-84
2022/05/29 10:03:51;;;;;;;18.82;10.30;;;28.60;99.90;;;;;;1786789;80;21111;-88
2022/05/29 10:06:21;;;;;;;15.10;10.72;;;28.80;99.90;;;;;;1790932;80;21221;-88
2022/05/29 10:08:54;;;;;;;19.60;10.45;;;28.80;99.90;;;;;;1787876;80;21110;-87
2022/05/29 10:11:27;;;;;;;19.48;11.05;;;28.60;99.90;;;;;;1788692;80;21752;-88
2022/05/29 10:14:02;;;;;;;19.15;9.93;;;28.80;99.90;;;;;;1787369;80;21126;-89
2022/05/29 10:16:35;;;;;;;18.17;9.83;;;28.60;99.90;;;;;;1784168;78;21162;-86
2022/05/29 10:19:09;;;;;;;16.45;9.43;;;28.60;99.90;;;;;;1786136;80;21174;-86
2022/05/29 10:21:42;;;;;;;15.93;10.30;;;28.40;99.90;;;;;;1787610;80;21118;-87
2022/05/29 10:24:18;;;;;;;14.68;9.93;;;28.20;99.90;;;;;;1789242;80;21724;-89
2022/05/29 10:26:56;;;;;;;17.02;9.48;;;28.20;99.90;;;;;;1786014;80;21641;-89
2022/05/29 10:29:29;;;;;;;21.52;9.43;;;28.20;99.90;;;;;;1787168;80;21633;-89
2022/05/29 10:32:03;;;;;;;19.67;10.00;;;;;;;;;;1788029;79;21083;-87
2022/05/29 10:34:40;;;;;;;15.30;9.93;;;28.40;99.90;;;;;;1787989;80;21150;-88
2022/05/29 10:37:12;;;;;;;17.92;9.63;;;;;;;;;;1785479;80;21225;-86
2022/05/29 10:39:47;;;;;;;17.10;10.35;;;28.20;99.90;;;;;;1784396;80;21185;-88
2022/05/29 10:42:21;;;;;;;19.40;10.40;;;27.80;99.90;;;;;;1793052;80;21103;-85
2022/05/29 10:44:55;;;;;;;20.88;11.73;;;27.90;99.90;;;;;;1757180;79;21586;-87
2022/05/29 10:47:28;;;;;;;22.15;12.58;;;28.20;99.90;;;;;;1741575;80;21198;-87
2022/05/29 10:50:03;;;;;;;17.32;11.00;;;27.90;99.90;;;;;;1744772;80;21171;-85
2022/05/29 10:52:38;;;;;;;16.90;11.63;;;27.90;99.90;;;;;;1741358;80;21963;-87
2022/05/29 10:55:13;;;;;;;16.25;11.75;;;27.90;99.90;;;;;;1815794;74;21155;-87
2022/05/29 10:57:45;;;;;;;;;;;28.00;99.90;;;;;;1896889;74;21131;-87
2022/05/29 11:00:20;;;;;;;17.32;11.22;;;28.30;99.90;;;;;;1885211;73;20297;-87
2022/05/29 11:05:32;;;;;;;17.48;10.38;;;28.20;99.90;;;;;;1862773;74;21147;-86
2022/05/29 11:08:05;;;;;;;18.70;11.00;;;28.20;99.90;;;;;;1873368;74;21191;-86
2022/05/29 11:10:39;;;;;;;18.12;11.63;;;28.40;99.90;;;;;;1879828;75;21139;-87
2022/05/29 11:13:16;;;;;;;18.40;10.98;;;28.30;99.90;;;;;;1844625;76;21198;-88
2022/05/29 11:15:49;;;;;;;20.95;11.60;;;28.50;99.90;;;;;;1853408;75;21217;-86
2022/05/29 11:18:22;;;;;;;19.42;11.40;;;28.50;99.90;;;;;;1849776;76;21206;-86
2022/05/29 11:20:55;;;;;;;19.60;11.40;;;28.40;99.90;;;;;;1813871;77;21617;-86
2022/05/29 11:23:29;;;;;;;21.37;10.85;;;28.20;99.90;;;;;;1850944;76;21182;-86
2022/05/29 11:26:04;;;;;;;21.57;11.73;;;28.10;99.90;;;;;;1864915;76;21239;-86
2022/05/29 11:28:38;;;;;;;18.12;11.28;;;28.00;99.90;;;;;;1883017;75;21171;-87
2022/05/29 11:31:11;;;;;;;22.45;12.60;;;28.00;99.90;;;;;;1833630;76;21209;-86
2022/05/29 11:33:47;;;;;;;21.20;11.80;;;27.60;99.90;;;;;;1875117;76;21591;-86
2022/05/29 11:36:21;;;;;;;25.10;12.90;;;27.90;99.90;;;;;;1867756;76;21194;-88
2022/05/29 11:38:54;;;;;;;20.48;13.03;;;27.50;99.90;;;;;;1849717;76;21080;-85
2022/05/29 11:41:27;;;;;;;20.17;13.25;;;27.50;99.90;;;;;;1873306;75;21154;-85
2022/05/29 11:44:01;;;;;;;23.62;13.85;;;27.40;99.90;;;;;;1875681;76;21092;-88
2022/05/29 11:51:48;;;;;;;17.50;12.10;;;27.40;99.90;;;;;;1813360;77;21111;-87
2022/05/29 11:54:23;;;;;;;19.60;13.05;;;27.30;99.90;;;;;;1804737;79;21170;-86
2022/05/29 11:56:57;;;;;;;20.65;13.53;;;27.60;99.90;;;;;;1812254;79;21192;-86
2022/05/29 11:59:31;;;;;;;20.75;13.40;;;27.40;99.90;;;;;;1801005;79;21083;-85
2022/05/29 12:02:04;;;;;;;23.70;15.10;;;27.60;99.90;;;;;;1812116;79;21094;-87
2022/05/29 12:04:42;;;;;;;19.40;13.38;;;27.30;99.90;;;;;;1817731;79;21194;-86
2022/05/29 12:07:14;;;;;;;19.67;13.05;;;27.50;99.90;;;;;;1807048;78;21577;-86
2022/05/29 12:09:50;;;;;;;21.65;13.68;;;27.40;99.90;;;;;;1809200;79;21166;-86
2022/05/29 12:12:26;;;;;;;22.85;12.85;;;27.40;99.90;;;;;;1806551;79;21147;-87
2022/05/29 12:15:00;;;;;;;18.25;13.30;;;27.60;99.90;;;;;;1786982;79;21232;-87
2022/05/29 12:17:33;;;;;;;22.55;13.75;;;27.50;99.90;;;;;;1775980;79;21169;-87
2022/05/29 12:20:07;;;;;;;19.10;13.35;;;27.50;99.90;;;;;;1807115;79;21642;-86
2022/05/29 12:22:41;;;;;;;23.47;13.58;;;27.50;99.90;;;;;;1812980;79;21146;-87
2022/05/29 12:25:14;;;;;;;22.35;13.95;;;27.70;99.90;;;;;;1810501;79;21153;-87
2022/05/29 12:27:45;;;;;;;18.27;13.35;;;27.40;99.90;;;;;;1813325;79;21138;-86
2022/05/29 12:30:18;;;;;;;17.98;12.63;;;27.60;99.90;;;;;;1810959;79;21161;-87
2022/05/29 12:32:49;;;;;;;23.85;14.13;;;27.50;99.90;;;;;;1809006;79;21636;-87
2022/05/29 12:35:23;;;;;;;20.77;14.15;;;27.40;99.90;;;;;;1810310;79;21154;-86
2022/05/29 12:37:56;;;;;;;19.35;13.60;;;27.50;99.90;;;;;;1812771;79;21138;-85
2022/05/29 12:40:30;;;;;;;18.20;13.25;;;27.80;99.90;;;;;;1801402;77;21293;-85
2022/05/29 12:43:06;;;;;;;20.43;14.40;;;27.60;99.90;;;;;;1811634;77;21264;-84
2022/05/29 12:45:41;;;;;;;22.98;13.20;;;27.80;99.90;;;;;;1815230;77;21142;-86
2022/05/29 12:48:27;;;;;;;23.30;13.35;;;27.70;99.90;;;;;;1813328;77;21155;-85
2022/05/29 12:51:01;;;;;;;21.10;12.98;;;27.80;99.90;;;;;;1823364;78;21169;-86
2022/05/29 12:53:34;;;;;;;21.20;12.40;;;27.70;99.90;;;;;;1823922;78;21159;-86
2022/05/29 12:56:08;;;;;;;21.17;13.00;;;27.90;99.90;;;;;;1826212;78;21226;-85
2022/05/29 12:58:41;;;;;;;19.75;11.75;;;27.80;99.90;;;;;;1822438;78;21135;-84
2022/05/29 13:01:15;;;;;;;24.87;14.15;;;27.70;99.90;;;;;;1806960;79;21112;-83
2022/05/29 13:06:26;;;;;;;22.22;13.20;;;27.90;99.90;;;;;;1901887;74;21069;-83
2022/05/29 13:08:59;;;;;;;18.48;12.30;;;27.80;99.90;;;;;;1930026;72;21142;-84
2022/05/29 13:11:32;;;;;;;18.50;12.58;;;27.50;99.90;;;;;;1914852;74;21195;-85
2022/05/29 13:14:05;;;;;;;23.57;13.85;;;27.50;99.90;;;;;;1920865;74;21107;-85
2022/05/29 13:16:39;;;;;;;21.42;12.85;;;27.60;99.90;;;;;;1905433;74;21133;-85
2022/05/29 13:19:21;;;;;;;19.20;12.33;;;27.50;99.90;;;;;;1905128;74;21040;-87
2022/05/29 13:21:47;;;;;;;17.62;11.25;;;27.20;99.90;;;;;;1925168;73;21097;-85
2022/05/29 13:24:19;;;;;;;23.27;11.80;;;27.20;99.90;;;;;;1898260;73;21068;-87
2022/05/29 13:26:52;;;;;;;22.70;10.55;;;26.90;99.90;;;;;;1918695;74;21078;-85
2022/05/29 13:29:28;;;;;;;13.60;8.53;;;27.00;99.90;;;;;;1907652;74;21094;-87
2022/05/29 13:32:13;;;;;;;15.78;8.28;;;26.80;99.90;;;;;;1910929;74;21688;-86
2022/05/29 13:34:48;;;;;;;13.13;7.10;;;26.70;99.90;;;;;;1903387;74;21131;-85
2022/05/29 13:37:24;;;;;;;14.15;7.45;;;26.50;99.90;;;;;;1907935;74;21118;-85
2022/05/29 13:40:02;;;;;;;16.23;7.55;;;26.40;99.90;;;;;;1899887;74;21152;-86